createdAt,value
2018-05-29T00:02:27.337Z,68.70
2018-05-29T00:04:55.681Z,68.80
2018-05-29T00:07:23.271Z,68.70
2018-05-29T00:09:52.438Z,69.70
2018-05-29T00:12:20.021Z,68.90
2018-05-29T00:14:47.545Z,69.00
2018-05-29T00:17:15.921Z,69.20
2018-05-29T00:19:43.779Z,69.10
2018-05-29T00:22:12.002Z,69.10
2018-05-29T00:24:43.841Z,69.20
2018-05-29T00:27:11.386Z,69.20
2018-05-29T00:29:38.962Z,69.10
2018-05-29T00:32:07.346Z,69.00
2018-05-29T00:34:38.644Z,69.00
2018-05-29T00:37:06.238Z,69.10
2018-05-29T00:39:33.837Z,69.10
2018-05-29T00:42:01.405Z,69.10
2018-05-29T00:44:29.700Z,68.80
2018-05-29T00:46:57.284Z,68.80
2018-05-29T00:49:25.390Z,68.70
2018-05-29T00:51:52.993Z,68.80
2018-05-29T00:54:23.021Z,68.70
2018-05-29T00:56:50.546Z,68.70
2018-05-29T00:59:18.070Z,68.80
2018-05-29T01:01:45.650Z,68.80
2018-05-29T01:04:13.171Z,68.80
2018-05-29T01:06:40.702Z,68.80
2018-05-29T01:09:09.803Z,68.80
2018-05-29T01:11:38.142Z,68.80
2018-05-29T01:14:05.669Z,68.80
2018-05-29T01:16:33.709Z,69.00
2018-05-29T01:19:02.005Z,69.00
2018-05-29T01:21:29.571Z,69.80
2018-05-29T01:23:57.573Z,69.10
2018-05-29T01:26:25.996Z,69.10
2018-05-29T01:28:54.292Z,69.30
2018-05-29T01:31:22.458Z,69.20
2018-05-29T01:33:50.062Z,69.40
2018-05-29T01:36:17.586Z,69.20
2018-05-29T01:38:45.900Z,69.40
2018-05-29T01:41:13.952Z,69.40
2018-05-29T01:43:42.355Z,69.50
2018-05-29T01:46:09.953Z,69.60
2018-05-29T01:48:37.481Z,69.60
2018-05-29T01:51:05.060Z,69.80
2018-05-29T01:53:32.589Z,69.80
2018-05-29T01:56:00.160Z,70.00
2018-05-29T01:58:28.483Z,69.90
2018-05-29T02:00:56.913Z,70.20
2018-05-29T02:03:24.499Z,70.00
2018-05-29T02:05:52.042Z,70.20
2018-05-29T02:08:19.619Z,70.30
2018-05-29T02:10:47.139Z,70.20
2018-05-29T02:13:15.303Z,70.30
2018-05-29T02:15:42.877Z,70.20
2018-05-29T02:18:11.161Z,70.20
2018-05-29T02:20:39.544Z,70.40
2018-05-29T02:23:07.097Z,70.40
2018-05-29T02:25:35.474Z,70.50
2018-05-29T02:28:03.054Z,70.30
2018-05-29T02:30:30.610Z,70.40
2018-05-29T02:33:02.444Z,70.40
2018-05-29T02:35:30.274Z,70.40
2018-05-29T02:37:57.846Z,70.50
2018-05-29T02:40:26.133Z,70.50
2018-05-29T02:42:53.913Z,70.50
2018-05-29T02:45:21.486Z,70.60
2018-05-29T02:47:49.877Z,70.60
2018-05-29T02:50:17.515Z,70.80
2018-05-29T02:52:45.033Z,70.90
2018-05-29T02:55:14.604Z,71.00
2018-05-29T02:57:42.172Z,71.20
2018-05-29T03:00:09.765Z,71.10
2018-05-29T03:02:37.755Z,71.40
2018-05-29T03:05:09.149Z,71.60
2018-05-29T03:07:36.719Z,71.40
2018-05-29T03:10:04.267Z,71.60
2018-05-29T03:12:31.850Z,71.70
2018-05-29T03:14:59.369Z,71.70
2018-05-29T03:17:27.555Z,72.00
2018-05-29T03:19:56.341Z,72.00
2018-05-29T03:22:23.914Z,72.00
2018-05-29T03:24:51.996Z,72.00
2018-05-29T03:27:19.572Z,72.00
2018-05-29T03:29:47.171Z,72.10
2018-05-29T03:32:15.234Z,72.10
2018-05-29T03:34:42.829Z,72.20
2018-05-29T03:37:10.358Z,72.20
2018-05-29T03:39:37.938Z,72.00
2018-05-29T03:42:06.341Z,72.10
2018-05-29T03:44:33.983Z,72.10
2018-05-29T03:47:01.573Z,71.90
2018-05-29T03:49:29.176Z,71.90
2018-05-29T03:51:58.367Z,72.20
2018-05-29T03:54:26.707Z,72.20
2018-05-29T03:56:54.289Z,72.20
2018-05-29T03:59:22.321Z,72.20
2018-05-29T04:01:50.867Z,72.10
2018-05-29T04:04:19.170Z,72.00
2018-05-29T04:06:47.318Z,72.00
2018-05-29T04:09:16.524Z,71.90
2018-05-29T04:11:44.974Z,71.80
2018-05-29T04:14:12.553Z,71.70
2018-05-29T04:16:40.933Z,71.50
2018-05-29T04:19:09.241Z,71.50
2018-05-29T04:21:36.798Z,71.50
2018-05-29T04:24:04.326Z,71.20
2018-05-29T04:26:32.668Z,70.80
2018-05-29T04:29:00.519Z,70.80
2018-05-29T04:31:28.079Z,71.40
2018-05-29T04:33:56.487Z,70.50
2018-05-29T04:36:24.326Z,70.30
2018-05-29T04:38:52.904Z,70.10
2018-05-29T04:41:20.445Z,70.00
2018-05-29T04:43:48.010Z,69.60
2018-05-29T04:46:16.409Z,69.40
2018-05-29T04:48:43.970Z,69.20
2018-05-29T04:51:11.513Z,68.90
2018-05-29T04:53:39.085Z,68.70
2018-05-29T04:56:07.373Z,68.60
2018-05-29T04:58:35.365Z,68.40
2018-05-29T05:01:02.939Z,68.30
2018-05-29T05:03:30.677Z,68.00
2018-05-29T05:05:59.533Z,67.40
2018-05-29T05:08:28.146Z,67.90
2018-05-29T05:11:00.111Z,67.80
2018-05-29T05:13:27.662Z,67.70
2018-05-29T05:15:55.974Z,67.70
2018-05-29T05:18:24.752Z,67.60
2018-05-29T05:20:52.308Z,67.50
2018-05-29T05:23:19.876Z,67.50
2018-05-29T05:25:47.425Z,67.50
2018-05-29T05:28:16.224Z,67.40
2018-05-29T05:30:44.062Z,67.20
2018-05-29T05:33:11.587Z,67.20
2018-05-29T05:35:39.129Z,67.00
2018-05-29T05:38:06.706Z,67.00
2018-05-29T05:40:39.332Z,66.80
2018-05-29T05:43:08.266Z,66.20
2018-05-29T05:45:35.819Z,66.70
2018-05-29T05:48:04.033Z,66.40
2018-05-29T05:50:31.844Z,66.70
2018-05-29T05:52:59.413Z,66.20
2018-05-29T05:55:26.981Z,65.90
2018-05-29T05:57:54.552Z,65.90
2018-05-29T06:00:22.339Z,65.70
2018-05-29T06:02:49.878Z,65.70
2018-05-29T06:05:18.210Z,65.30
2018-05-29T06:07:50.328Z,65.20
2018-05-29T06:10:18.626Z,65.00
2018-05-29T06:12:47.161Z,65.00
2018-05-29T06:15:15.265Z,65.20
2018-05-29T06:17:43.560Z,65.10
2018-05-29T06:20:11.643Z,65.00
2018-05-29T06:22:39.210Z,65.10
2018-05-29T06:25:06.763Z,65.10
2018-05-29T06:27:34.305Z,65.10
2018-05-29T06:30:01.879Z,65.10
2018-05-29T06:32:29.425Z,65.00
2018-05-29T06:34:56.993Z,64.80
2018-05-29T06:37:25.444Z,64.70
2018-05-29T06:39:54.321Z,64.60
2018-05-29T06:42:21.897Z,64.50
2018-05-29T06:44:50.206Z,64.70
2018-05-29T06:47:18.694Z,64.60
2018-05-29T06:49:46.263Z,64.60
2018-05-29T06:52:13.865Z,64.50
2018-05-29T06:54:41.909Z,64.30
2018-05-29T06:57:09.465Z,64.30
2018-05-29T06:59:37.017Z,64.50
2018-05-29T07:02:04.618Z,64.50
2018-05-29T07:04:32.213Z,64.70
2018-05-29T07:07:00.571Z,64.50
2018-05-29T07:09:29.771Z,64.50
2018-05-29T07:11:58.165Z,64.40
2018-05-29T07:14:26.493Z,64.40
2018-05-29T07:16:54.045Z,64.40
2018-05-29T07:19:21.603Z,64.30
2018-05-29T07:21:49.201Z,64.10
2018-05-29T07:24:16.757Z,63.90
2018-05-29T07:26:44.351Z,63.80
2018-05-29T07:29:15.874Z,63.80
2018-05-29T07:31:43.392Z,63.60
2018-05-29T07:34:10.985Z,63.40
2018-05-29T07:36:38.545Z,63.30
2018-05-29T07:39:06.094Z,63.10
2018-05-29T07:41:33.667Z,63.00
2018-05-29T07:44:01.797Z,62.80
2018-05-29T07:46:29.329Z,62.50
2018-05-29T07:48:57.656Z,62.20
2018-05-29T07:51:25.910Z,62.20
2018-05-29T07:53:53.501Z,62.20
2018-05-29T07:56:21.047Z,62.20
2018-05-29T07:58:49.227Z,62.30
2018-05-29T08:01:16.817Z,62.10
2018-05-29T08:03:44.342Z,62.00
2018-05-29T08:06:11.873Z,61.90
2018-05-29T08:08:40.209Z,62.00
2018-05-29T08:11:07.776Z,62.00
2018-05-29T08:13:35.916Z,61.70
2018-05-29T08:16:04.012Z,61.70
2018-05-29T08:18:31.942Z,61.90
2018-05-29T08:21:00.066Z,61.80
2018-05-29T08:23:27.632Z,61.70
2018-05-29T08:25:55.733Z,61.80
2018-05-29T08:28:24.114Z,60.70
2018-05-29T08:30:51.648Z,60.70
2018-05-29T08:33:20.415Z,60.30
2018-05-29T08:35:47.981Z,60.20
2018-05-29T08:38:15.987Z,60.30
2018-05-29T08:40:45.479Z,60.10
2018-05-29T08:43:13.058Z,60.10
2018-05-29T08:45:41.355Z,59.70
2018-05-29T08:48:08.936Z,59.70
2018-05-29T08:50:41.346Z,59.70
2018-05-29T08:53:08.910Z,59.50
2018-05-29T08:55:37.264Z,59.20
2018-05-29T08:58:04.798Z,58.80
2018-05-29T09:00:32.376Z,58.70
2018-05-29T09:03:00.841Z,58.80
2018-05-29T09:05:28.457Z,58.90
2018-05-29T09:07:56.764Z,58.40
2018-05-29T09:10:25.044Z,58.50
2018-05-29T09:12:52.578Z,57.80
2018-05-29T09:15:21.659Z,57.70
2018-05-29T09:17:49.885Z,57.60
2018-05-29T09:20:17.542Z,57.50
2018-05-29T09:22:45.074Z,57.50
2018-05-29T09:25:15.181Z,56.80
2018-05-29T09:27:42.716Z,56.80
2018-05-29T09:30:10.289Z,56.50
2018-05-29T09:32:38.410Z,57.30
2018-05-29T09:35:06.671Z,57.30
2018-05-29T09:40:08.052Z,56.70
2018-05-29T09:42:36.243Z,56.60
2018-05-29T09:45:03.839Z,56.30
2018-05-29T09:47:31.413Z,55.90
2018-05-29T09:49:58.944Z,55.60
2018-05-29T09:52:30.789Z,55.70
2018-05-29T09:54:58.320Z,56.20
2018-05-29T09:57:29.476Z,56.10
2018-05-29T09:59:57.024Z,56.20
2018-05-29T10:02:25.405Z,56.20
2018-05-29T10:04:52.994Z,56.20
2018-05-29T10:07:21.002Z,56.30
2018-05-29T10:09:48.589Z,56.20
2018-05-29T10:12:16.916Z,56.20
2018-05-29T10:14:44.792Z,56.20
2018-05-29T10:17:13.119Z,56.40
2018-05-29T10:19:41.608Z,56.40
2018-05-29T10:22:09.917Z,56.20
2018-05-29T10:24:37.482Z,56.20
2018-05-29T10:27:05.109Z,55.60
2018-05-29T10:29:32.633Z,55.50
2018-05-29T10:32:00.196Z,55.40
2018-05-29T10:34:27.718Z,55.20
2018-05-29T10:36:56.124Z,54.70
2018-05-29T10:39:23.708Z,54.70
2018-05-29T10:41:59.143Z,54.60
2018-05-29T10:44:27.861Z,54.80
2018-05-29T10:46:56.027Z,55.10
2018-05-29T10:49:24.365Z,54.50
2018-05-29T10:51:56.209Z,54.50
2018-05-29T10:54:23.761Z,53.80
2018-05-29T10:56:51.937Z,53.50
2018-05-29T10:59:19.456Z,53.30
2018-05-29T11:01:46.985Z,52.20
2018-05-29T11:04:14.904Z,52.20
2018-05-29T11:06:43.344Z,52.00
2018-05-29T11:09:10.907Z,51.50
2018-05-29T11:11:38.477Z,50.60
2018-05-29T11:14:07.510Z,50.30
2018-05-29T11:16:35.045Z,50.20
2018-05-29T11:19:02.600Z,50.30
2018-05-29T11:21:31.385Z,50.00
2018-05-29T11:23:59.727Z,49.80
2018-05-29T11:26:31.234Z,49.70
2018-05-29T11:28:58.803Z,49.20
2018-05-29T11:31:26.349Z,49.00
2018-05-29T11:33:53.907Z,48.90
2018-05-29T11:36:22.045Z,48.60
2018-05-29T11:38:49.575Z,48.40
2018-05-29T11:41:17.242Z,48.40
2018-05-29T11:43:45.365Z,48.60
2018-05-29T11:46:13.691Z,48.70
2018-05-29T11:48:41.210Z,48.60
2018-05-29T11:51:09.357Z,48.60
2018-05-29T11:53:36.917Z,48.20
2018-05-29T11:56:04.739Z,48.40
2018-05-29T11:58:32.264Z,48.50
2018-05-29T12:00:59.821Z,48.40
2018-05-29T12:03:27.340Z,48.70
2018-05-29T12:05:54.901Z,48.70
2018-05-29T12:08:22.490Z,48.80
2018-05-29T12:10:50.078Z,48.70
2018-05-29T12:13:17.691Z,49.40
2018-05-29T12:15:45.225Z,49.00
2018-05-29T12:18:12.862Z,49.10
2018-05-29T12:20:40.450Z,49.00
2018-05-29T12:23:08.206Z,48.20
2018-05-29T12:25:36.336Z,48.30
2018-05-29T12:28:03.877Z,48.40
2018-05-29T12:30:31.797Z,48.00
2018-05-29T12:32:59.364Z,48.10
2018-05-29T12:35:27.035Z,48.40
2018-05-29T12:37:54.668Z,48.60
2018-05-29T12:40:23.613Z,48.90
2018-05-29T12:42:51.136Z,48.90
2018-05-29T12:45:18.706Z,49.10
2018-05-29T12:47:50.369Z,49.30
2018-05-29T12:50:17.894Z,49.00
2018-05-29T12:52:49.338Z,48.60
2018-05-29T12:55:16.858Z,48.20
2018-05-29T12:57:44.395Z,47.30
2018-05-29T13:00:11.974Z,46.50
2018-05-29T13:02:39.496Z,46.00
2018-05-29T13:05:07.013Z,45.70
2018-05-29T13:07:35.021Z,45.30
2018-05-29T13:10:02.590Z,45.00
2018-05-29T13:12:30.124Z,45.50
2018-05-29T13:14:57.683Z,45.40
2018-05-29T13:17:26.055Z,45.90
2018-05-29T13:19:54.042Z,45.90
2018-05-29T13:22:22.364Z,46.20
2018-05-29T13:24:49.895Z,46.20
2018-05-29T13:27:17.452Z,45.90
2018-05-29T13:29:46.041Z,45.30
2018-05-29T13:32:13.609Z,45.40
2018-05-29T13:34:41.917Z,45.40
2018-05-29T13:37:09.518Z,45.70
2018-05-29T13:39:37.815Z,45.90
2018-05-29T13:42:06.009Z,45.80
2018-05-29T13:44:34.732Z,45.80
2018-05-29T13:47:02.254Z,43.80
2018-05-29T13:49:30.377Z,42.90
2018-05-29T13:51:57.933Z,43.10
2018-05-29T13:54:26.578Z,43.10
2018-05-29T13:56:54.261Z,43.40
2018-05-29T13:59:21.809Z,43.90
2018-05-29T14:01:49.378Z,44.00
2018-05-29T14:04:16.917Z,43.90
2018-05-29T14:06:44.434Z,43.70
2018-05-29T14:09:11.995Z,43.30
2018-05-29T14:11:40.341Z,43.20
2018-05-29T14:14:07.889Z,43.10
2018-05-29T14:16:36.117Z,43.10
2018-05-29T14:19:03.678Z,42.80
2018-05-29T14:21:32.078Z,41.60
2018-05-29T14:24:03.788Z,41.60
2018-05-29T14:26:31.348Z,41.40
2018-05-29T14:28:58.908Z,40.30
2018-05-29T14:31:27.315Z,39.80
2018-05-29T14:33:55.430Z,39.50
2018-05-29T14:36:22.990Z,39.30
2018-05-29T14:38:50.543Z,39.30
2018-05-29T14:41:18.106Z,39.60
2018-05-29T14:43:46.237Z,39.60
2018-05-29T14:46:14.778Z,39.20
2018-05-29T14:48:42.309Z,39.20
2018-05-29T14:51:09.891Z,38.90
2018-05-29T14:53:41.561Z,39.00
2018-05-29T14:56:09.120Z,38.70
2018-05-29T14:58:36.926Z,38.70
2018-05-29T15:01:05.329Z,39.00
2018-05-29T15:03:32.860Z,38.80
2018-05-29T15:06:00.443Z,39.30
2018-05-29T15:08:28.015Z,39.80
2018-05-29T15:10:56.027Z,40.30
2018-05-29T15:13:24.196Z,40.70
2018-05-29T15:15:51.739Z,41.20
2018-05-29T15:18:19.270Z,41.00
2018-05-29T15:20:46.829Z,40.90
2018-05-29T15:23:14.357Z,40.90
2018-05-29T15:25:41.914Z,40.90
2018-05-29T15:28:10.178Z,40.60
2018-05-29T15:30:37.793Z,40.50
2018-05-29T15:33:05.364Z,40.20
2018-05-29T15:35:33.609Z,40.20
2018-05-29T15:38:01.940Z,40.00
2018-05-29T15:40:30.065Z,40.00
2018-05-29T15:42:58.558Z,39.80
2018-05-29T15:45:26.701Z,39.70
2018-05-29T15:47:55.703Z,39.90
2018-05-29T15:50:24.801Z,40.60
2018-05-29T15:52:53.118Z,41.00
2018-05-29T15:55:20.707Z,40.90
2018-05-29T15:57:49.062Z,41.30
2018-05-29T16:00:16.620Z,41.80
2018-05-29T16:02:45.728Z,42.30
2018-05-29T16:05:13.777Z,42.60
2018-05-29T16:07:41.338Z,42.60
2018-05-29T16:10:08.973Z,42.50
2018-05-29T16:12:37.773Z,42.70
2018-05-29T16:15:06.094Z,42.80
2018-05-29T16:17:37.445Z,42.80
2018-05-29T16:20:04.979Z,42.60
2018-05-29T16:22:32.534Z,42.80
2018-05-29T16:25:00.094Z,42.90
2018-05-29T16:27:28.393Z,43.10
2018-05-29T16:29:55.935Z,43.40
2018-05-29T16:32:23.980Z,43.70
2018-05-29T16:34:52.141Z,43.80
2018-05-29T16:37:19.678Z,44.00
2018-05-29T16:39:47.253Z,44.30
2018-05-29T16:42:16.189Z,44.80
2018-05-29T16:44:43.798Z,44.80
2018-05-29T16:47:11.325Z,44.90
2018-05-29T16:49:39.775Z,45.10
2018-05-29T16:52:07.345Z,45.30
2018-05-29T16:54:34.906Z,46.10
2018-05-29T16:57:02.623Z,45.50
2018-05-29T16:59:30.249Z,45.70
2018-05-29T17:01:57.776Z,45.80
2018-05-29T17:04:26.110Z,46.20
2018-05-29T17:06:54.869Z,46.20
2018-05-29T17:09:24.200Z,46.40
2018-05-29T17:11:51.777Z,46.80
2018-05-29T17:14:19.976Z,47.00
2018-05-29T17:16:48.308Z,47.30
2018-05-29T17:19:15.884Z,47.30
2018-05-29T17:21:43.866Z,47.50
2018-05-29T17:24:12.054Z,47.90
2018-05-29T17:26:40.343Z,50.40
2018-05-29T17:29:07.993Z,50.40
2018-05-29T17:31:36.038Z,51.00
2018-05-29T17:34:04.246Z,51.60
2018-05-29T17:36:31.785Z,51.50
2018-05-29T17:38:59.314Z,50.90
2018-05-29T17:41:26.872Z,48.90
2018-05-29T17:43:54.881Z,49.10
2018-05-29T17:46:22.674Z,48.90
2018-05-29T17:48:50.299Z,48.60
2018-05-29T17:51:17.919Z,49.10
2018-05-29T17:53:45.690Z,49.50
2018-05-29T17:56:13.746Z,50.30
2018-05-29T17:58:43.060Z,51.60
2018-05-29T18:01:10.762Z,51.60
2018-05-29T18:03:39.326Z,52.00
2018-05-29T18:06:07.443Z,52.00
2018-05-29T18:08:35.183Z,52.10
2018-05-29T18:11:04.029Z,52.00
2018-05-29T18:13:35.649Z,52.00
2018-05-29T18:16:05.225Z,52.40
2018-05-29T18:18:32.930Z,52.20
2018-05-29T18:21:00.708Z,52.60
2018-05-29T18:23:28.549Z,53.80
2018-05-29T18:25:56.221Z,54.20
2018-05-29T18:28:24.048Z,54.70
2018-05-29T18:30:52.702Z,56.50
2018-05-29T18:33:20.866Z,56.50
2018-05-29T18:35:48.445Z,57.40
2018-05-29T18:38:15.992Z,57.80
2018-05-29T18:40:44.155Z,58.60
2018-05-29T18:43:11.745Z,58.70
2018-05-29T18:45:39.303Z,58.60
2018-05-29T18:48:06.927Z,58.60
2018-05-29T18:50:35.771Z,59.70
2018-05-29T18:53:03.866Z,59.00
2018-05-29T18:55:31.426Z,58.80
2018-05-29T18:57:59.757Z,58.80
2018-05-29T19:00:27.255Z,58.40
2018-05-29T19:02:56.200Z,58.00
2018-05-29T19:05:27.698Z,58.00
2018-05-29T19:07:55.287Z,58.30
2018-05-29T19:10:23.817Z,58.70
2018-05-29T19:12:51.380Z,59.40
2018-05-29T19:15:18.972Z,59.70
2018-05-29T19:17:46.536Z,59.70
2018-05-29T19:20:14.401Z,59.80
2018-05-29T19:22:41.969Z,60.50
2018-05-29T19:25:09.543Z,59.60
2018-05-29T19:27:38.474Z,59.50
2018-05-29T19:30:06.228Z,59.50
2018-05-29T19:32:33.766Z,59.30
2018-05-29T19:35:02.159Z,59.50
2018-05-29T19:37:29.735Z,59.50
2018-05-29T19:39:57.379Z,59.50
2018-05-29T19:42:24.993Z,59.60
2018-05-29T19:44:52.603Z,59.70
2018-05-29T19:47:20.865Z,59.80
2018-05-29T19:49:49.283Z,59.60
2018-05-29T19:52:17.648Z,59.50
2018-05-29T19:54:45.749Z,59.50
2018-05-29T19:57:13.358Z,59.30
2018-05-29T19:59:41.657Z,59.60
2018-05-29T20:02:09.962Z,59.60
2018-05-29T20:04:37.495Z,59.60
2018-05-29T20:07:05.017Z,59.40
2018-05-29T20:09:33.206Z,59.30
2018-05-29T20:12:01.529Z,59.40
2018-05-29T20:14:29.080Z,59.40
2018-05-29T20:16:57.095Z,59.20
2018-05-29T20:19:25.510Z,59.00
2018-05-29T20:21:53.127Z,59.00
2018-05-29T20:24:20.680Z,58.80
2018-05-29T20:26:48.930Z,59.10
2018-05-29T20:29:17.269Z,58.30
2018-05-29T20:31:45.562Z,57.80
2018-05-29T20:34:13.113Z,57.70
2018-05-29T20:36:41.448Z,58.10
2018-05-29T20:39:09.033Z,58.10
2018-05-29T20:41:36.586Z,58.00
2018-05-29T20:44:04.182Z,57.50
2018-05-29T20:46:32.641Z,57.60
2018-05-29T20:49:00.933Z,58.00
2018-05-29T20:51:33.955Z,58.20
2018-05-29T20:54:02.083Z,58.20
2018-05-29T20:56:29.650Z,58.50
2018-05-29T20:59:02.231Z,58.50
2018-05-29T21:01:30.527Z,58.50
2018-05-29T21:03:58.097Z,58.50
2018-05-29T21:06:25.624Z,58.20
2018-05-29T21:08:55.063Z,58.20
2018-05-29T21:11:22.696Z,58.20
2018-05-29T21:13:50.987Z,58.30
2018-05-29T21:16:22.322Z,58.30
2018-05-29T21:18:50.685Z,59.60
2018-05-29T21:21:18.304Z,59.60
2018-05-29T21:23:46.468Z,60.20
2018-05-29T21:26:14.693Z,60.50
2018-05-29T21:28:42.264Z,60.60
2018-05-29T21:31:10.577Z,61.30
2018-05-29T21:33:38.587Z,61.20
2018-05-29T21:36:06.163Z,61.30
2018-05-29T21:38:34.327Z,61.50
2018-05-29T21:41:06.545Z,61.20
2018-05-29T21:43:34.949Z,61.20
2018-05-29T21:46:02.742Z,61.20
2018-05-29T21:48:30.309Z,61.20
2018-05-29T21:50:57.880Z,61.10
2018-05-29T21:53:25.409Z,61.10
2018-05-29T21:55:53.377Z,61.10
2018-05-29T21:58:20.926Z,61.20
2018-05-29T22:00:48.648Z,61.10
2018-05-29T22:03:17.801Z,61.10
2018-05-29T22:05:45.325Z,61.10
2018-05-29T22:08:13.539Z,60.90
2018-05-29T22:10:41.100Z,61.00
2018-05-29T22:13:08.652Z,61.20
2018-05-29T22:15:36.229Z,61.50
2018-05-29T22:18:04.264Z,61.50
2018-05-29T22:20:31.781Z,61.70
2018-05-29T22:23:00.120Z,61.90
2018-05-29T22:25:27.650Z,61.90
2018-05-29T22:27:55.198Z,62.00
2018-05-29T22:30:23.430Z,62.20
2018-05-29T22:32:50.958Z,62.50
2018-05-29T22:35:18.557Z,62.80
2018-05-29T22:37:46.081Z,63.00
2018-05-29T22:40:14.270Z,63.10
2018-05-29T22:42:41.821Z,63.20
2018-05-29T22:45:09.349Z,63.00
2018-05-29T22:47:36.929Z,63.00
2018-05-29T22:50:05.268Z,63.20
2018-05-29T22:52:34.054Z,63.10
2018-05-29T22:55:01.637Z,63.00
2018-05-29T22:57:29.893Z,63.00
2018-05-29T22:59:58.217Z,63.20
2018-05-29T23:02:25.786Z,63.20
2018-05-29T23:04:53.949Z,63.30
2018-05-29T23:07:21.461Z,63.30
2018-05-29T23:09:49.028Z,63.20
2018-05-29T23:12:21.313Z,63.50
2018-05-29T23:14:49.634Z,63.50
2018-05-29T23:17:18.047Z,63.40
2018-05-29T23:19:45.571Z,63.60
2018-05-29T23:22:13.743Z,63.70
2018-05-29T23:24:41.324Z,63.80
2018-05-29T23:27:08.873Z,63.80
2018-05-29T23:29:36.396Z,63.80
2018-05-29T23:32:03.955Z,63.90
2018-05-29T23:34:35.741Z,64.00
2018-05-29T23:37:03.685Z,64.20
2018-05-29T23:39:31.245Z,64.30
2018-05-29T23:41:58.796Z,64.50
2018-05-29T23:44:26.353Z,64.50
2018-05-29T23:46:54.632Z,64.90
2018-05-29T23:49:23.507Z,65.10
2018-05-29T23:51:51.808Z,65.10
2018-05-29T23:54:19.365Z,65.10
2018-05-29T23:56:47.677Z,65.20
2018-05-29T23:59:15.229Z,64.80
